sensor_id;sensor_type;location;lat;lon;timestamp;P1;durP1;ratioP1;P2;durP2;ratioP2
67981;SDS011;64109;52.148;4.466;2023-02-11T00:01:33;8.15;;;1.63;;
67981;SDS011;64109;52.148;4.466;2023-02-11T00:03:59;5.70;;;2.80;;
67981;SDS011;64109;52.148;4.466;2023-02-11T00:06:26;7.43;;;1.80;;
67981;SDS011;64109;52.148;4.466;2023-02-11T00:08:53;6.35;;;1.80;;
67981;SDS011;64109;52.148;4.466;2023-02-11T00:11:19;7.53;;;1.88;;
67981;SDS011;64109;52.148;4.466;2023-02-11T00:13:46;6.70;;;1.92;;
67981;SDS011;64109;52.148;4.466;2023-02-11T00:16:14;6.63;;;1.73;;
67981;SDS011;64109;52.148;4.466;2023-02-11T00:18:40;6.88;;;1.60;;
67981;SDS011;64109;52.148;4.466;2023-02-11T00:21:14;6.07;;;1.65;;
67981;SDS011;64109;52.148;4.466;2023-02-11T00:23:41;8.80;;;2.97;;
67981;SDS011;64109;52.148;4.466;2023-02-11T00:26:14;8.93;;;1.90;;
67981;SDS011;64109;52.148;4.466;2023-02-11T00:28:40;5.60;;;1.45;;
67981;SDS011;64109;52.148;4.466;2023-02-11T00:31:07;5.53;;;2.03;;
67981;SDS011;64109;52.148;4.466;2023-02-11T00:33:33;7.13;;;2.03;;
67981;SDS011;64109;52.148;4.466;2023-02-11T00:36:02;5.82;;;1.73;;
67981;SDS011;64109;52.148;4.466;2023-02-11T00:38:28;6.15;;;1.95;;
67981;SDS011;64109;52.148;4.466;2023-02-11T00:40:54;4.80;;;1.52;;
67981;SDS011;64109;52.148;4.466;2023-02-11T00:43:20;7.97;;;2.35;;
67981;SDS011;64109;52.148;4.466;2023-02-11T00:45:46;5.03;;;1.65;;
67981;SDS011;64109;52.148;4.466;2023-02-11T00:48:12;6.60;;;1.95;;
67981;SDS011;64109;52.148;4.466;2023-02-11T00:50:38;5.70;;;1.50;;
67981;SDS011;64109;52.148;4.466;2023-02-11T00:53:05;6.40;;;1.85;;
67981;SDS011;64109;52.148;4.466;2023-02-11T00:55:31;4.78;;;1.42;;
67981;SDS011;64109;52.148;4.466;2023-02-11T00:57:57;7.65;;;2.17;;
67981;SDS011;64109;52.148;4.466;2023-02-11T01:00:24;6.53;;;2.08;;
67981;SDS011;64109;52.148;4.466;2023-02-11T01:02:50;4.80;;;1.70;;
67981;SDS011;64109;52.148;4.466;2023-02-11T01:05:16;10.75;;;1.90;;
67981;SDS011;64109;52.148;4.466;2023-02-11T01:07:42;6.13;;;2.10;;
67981;SDS011;64109;52.148;4.466;2023-02-11T01:10:08;8.82;;;1.98;;
67981;SDS011;64109;52.148;4.466;2023-02-11T01:12:34;6.85;;;1.77;;
67981;SDS011;64109;52.148;4.466;2023-02-11T01:15:00;7.07;;;2.00;;
67981;SDS011;64109;52.148;4.466;2023-02-11T01:17:26;6.00;;;3.00;;
67981;SDS011;64109;52.148;4.466;2023-02-11T01:19:52;6.65;;;1.70;;
67981;SDS011;64109;52.148;4.466;2023-02-11T01:22:18;5.82;;;2.88;;
67981;SDS011;64109;52.148;4.466;2023-02-11T01:24:44;7.07;;;1.92;;
67981;SDS011;64109;52.148;4.466;2023-02-11T01:27:10;7.57;;;2.10;;
67981;SDS011;64109;52.148;4.466;2023-02-11T01:29:36;6.93;;;1.85;;
67981;SDS011;64109;52.148;4.466;2023-02-11T01:32:02;7.57;;;2.13;;
67981;SDS011;64109;52.148;4.466;2023-02-11T01:34:28;9.00;;;2.30;;
67981;SDS011;64109;52.148;4.466;2023-02-11T01:36:58;7.68;;;2.20;;
67981;SDS011;64109;52.148;4.466;2023-02-11T01:41:50;6.80;;;1.90;;
67981;SDS011;64109;52.148;4.466;2023-02-11T01:46:48;6.53;;;2.20;;
67981;SDS011;64109;52.148;4.466;2023-02-11T01:49:18;6.10;;;2.20;;
67981;SDS011;64109;52.148;4.466;2023-02-11T01:51:47;4.75;;;1.73;;
67981;SDS011;64109;52.148;4.466;2023-02-11T01:54:16;7.13;;;3.15;;
67981;SDS011;64109;52.148;4.466;2023-02-11T01:57:01;8.13;;;2.45;;
67981;SDS011;64109;52.148;4.466;2023-02-11T02:02:21;5.95;;;1.83;;
67981;SDS011;64109;52.148;4.466;2023-02-11T02:04:52;8.55;;;2.42;;
67981;SDS011;64109;52.148;4.466;2023-02-11T02:07:37;6.75;;;2.15;;
67981;SDS011;64109;52.148;4.466;2023-02-11T02:10:08;5.93;;;1.88;;
67981;SDS011;64109;52.148;4.466;2023-02-11T02:12:36;7.53;;;2.42;;
67981;SDS011;64109;52.148;4.466;2023-02-11T02:17:53;5.65;;;2.10;;
67981;SDS011;64109;52.148;4.466;2023-02-11T02:23:06;6.28;;;2.80;;
67981;SDS011;64109;52.148;4.466;2023-02-11T02:38:57;7.15;;;2.30;;
67981;SDS011;64109;52.148;4.466;2023-02-11T02:41:26;6.53;;;2.58;;
67981;SDS011;64109;52.148;4.466;2023-02-11T02:43:53;7.13;;;2.17;;
67981;SDS011;64109;52.148;4.466;2023-02-11T02:46:29;4.95;;;2.33;;
67981;SDS011;64109;52.148;4.466;2023-02-11T02:48:56;7.35;;;3.08;;
67981;SDS011;64109;52.148;4.466;2023-02-11T03:01:29;8.38;;;2.50;;
67981;SDS011;64109;52.148;4.466;2023-02-11T03:06:57;8.40;;;3.83;;
67981;SDS011;64109;52.148;4.466;2023-02-11T03:09:38;7.75;;;3.95;;
67981;SDS011;64109;52.148;4.466;2023-02-11T03:12:05;6.50;;;2.47;;
67981;SDS011;64109;52.148;4.466;2023-02-11T03:14:31;6.80;;;2.50;;
67981;SDS011;64109;52.148;4.466;2023-02-11T03:16:58;7.70;;;3.85;;
67981;SDS011;64109;52.148;4.466;2023-02-11T03:19:28;7.20;;;2.55;;
67981;SDS011;64109;52.148;4.466;2023-02-11T03:21:54;9.77;;;3.90;;
67981;SDS011;64109;52.148;4.466;2023-02-11T03:24:28;6.35;;;2.80;;
67981;SDS011;64109;52.148;4.466;2023-02-11T03:26:57;7.15;;;2.50;;
67981;SDS011;64109;52.148;4.466;2023-02-11T03:34:18;8.45;;;2.75;;
67981;SDS011;64109;52.148;4.466;2023-02-11T03:36:47;6.65;;;2.08;;
67981;SDS011;64109;52.148;4.466;2023-02-11T03:39:25;6.85;;;2.67;;
67981;SDS011;64109;52.148;4.466;2023-02-11T03:41:53;8.05;;;2.78;;
67981;SDS011;64109;52.148;4.466;2023-02-11T03:44:20;9.23;;;2.83;;
67981;SDS011;64109;52.148;4.466;2023-02-11T03:46:48;8.65;;;3.10;;
67981;SDS011;64109;52.148;4.466;2023-02-11T03:49:15;9.02;;;3.20;;
67981;SDS011;64109;52.148;4.466;2023-02-11T03:51:42;7.57;;;3.75;;
67981;SDS011;64109;52.148;4.466;2023-02-11T03:54:13;8.23;;;2.83;;
67981;SDS011;64109;52.148;4.466;2023-02-11T03:56:42;6.30;;;2.65;;
67981;SDS011;64109;52.148;4.466;2023-02-11T03:59:10;4.80;;;2.28;;
67981;SDS011;64109;52.148;4.466;2023-02-11T04:01:36;8.55;;;2.97;;
67981;SDS011;64109;52.148;4.466;2023-02-11T04:04:02;6.05;;;2.80;;
67981;SDS011;64109;52.148;4.466;2023-02-11T04:06:28;6.22;;;2.55;;
67981;SDS011;64109;52.148;4.466;2023-02-11T04:08:54;6.03;;;2.40;;
67981;SDS011;64109;52.148;4.466;2023-02-11T04:11:20;7.53;;;2.63;;
67981;SDS011;64109;52.148;4.466;2023-02-11T04:13:46;7.18;;;2.85;;
67981;SDS011;64109;52.148;4.466;2023-02-11T04:16:12;5.47;;;2.28;;
67981;SDS011;64109;52.148;4.466;2023-02-11T04:18:38;8.52;;;4.10;;
67981;SDS011;64109;52.148;4.466;2023-02-11T04:21:04;7.72;;;2.70;;
67981;SDS011;64109;52.148;4.466;2023-02-11T04:23:30;9.93;;;3.83;;
67981;SDS011;64109;52.148;4.466;2023-02-11T04:25:56;7.18;;;3.05;;
67981;SDS011;64109;52.148;4.466;2023-02-11T04:28:22;6.25;;;2.55;;
67981;SDS011;64109;52.148;4.466;2023-02-11T04:30:48;8.25;;;2.60;;
67981;SDS011;64109;52.148;4.466;2023-02-11T04:33:15;7.10;;;2.53;;
67981;SDS011;64109;52.148;4.466;2023-02-11T04:35:41;6.07;;;2.90;;
67981;SDS011;64109;52.148;4.466;2023-02-11T04:38:07;6.38;;;2.63;;
67981;SDS011;64109;52.148;4.466;2023-02-11T04:40:33;9.02;;;2.83;;
67981;SDS011;64109;52.148;4.466;2023-02-11T04:42:59;10.45;;;3.85;;
67981;SDS011;64109;52.148;4.466;2023-02-11T04:45:25;8.48;;;3.13;;
67981;SDS011;64109;52.148;4.466;2023-02-11T04:47:51;9.63;;;2.90;;
67981;SDS011;64109;52.148;4.466;2023-02-11T04:50:17;5.63;;;2.53;;
67981;SDS011;64109;52.148;4.466;2023-02-11T04:52:43;8.52;;;3.63;;
67981;SDS011;64109;52.148;4.466;2023-02-11T04:55:08;7.70;;;3.10;;
67981;SDS011;64109;52.148;4.466;2023-02-11T04:57:34;7.18;;;3.83;;
67981;SDS011;64109;52.148;4.466;2023-02-11T05:00:00;5.80;;;2.92;;
67981;SDS011;64109;52.148;4.466;2023-02-11T05:02:26;7.47;;;3.10;;
67981;SDS011;64109;52.148;4.466;2023-02-11T05:04:53;8.20;;;3.72;;
67981;SDS011;64109;52.148;4.466;2023-02-11T05:07:20;6.40;;;4.38;;
67981;SDS011;64109;52.148;4.466;2023-02-11T05:09:45;10.93;;;3.17;;
67981;SDS011;64109;52.148;4.466;2023-02-11T05:12:12;7.75;;;3.70;;
67981;SDS011;64109;52.148;4.466;2023-02-11T05:14:37;8.52;;;3.08;;
67981;SDS011;64109;52.148;4.466;2023-02-11T05:17:03;8.30;;;3.10;;
67981;SDS011;64109;52.148;4.466;2023-02-11T05:19:29;6.53;;;2.72;;
67981;SDS011;64109;52.148;4.466;2023-02-11T05:21:56;7.78;;;2.67;;
67981;SDS011;64109;52.148;4.466;2023-02-11T05:24:22;6.82;;;3.10;;
67981;SDS011;64109;52.148;4.466;2023-02-11T05:26:48;7.65;;;2.80;;
67981;SDS011;64109;52.148;4.466;2023-02-11T05:29:14;7.38;;;2.92;;
67981;SDS011;64109;52.148;4.466;2023-02-11T05:31:40;7.28;;;2.97;;
67981;SDS011;64109;52.148;4.466;2023-02-11T05:34:06;7.03;;;3.10;;
67981;SDS011;64109;52.148;4.466;2023-02-11T05:36:31;6.05;;;3.50;;
67981;SDS011;64109;52.148;4.466;2023-02-11T05:38:57;8.32;;;3.00;;
67981;SDS011;64109;52.148;4.466;2023-02-11T05:41:23;7.05;;;3.38;;
67981;SDS011;64109;52.148;4.466;2023-02-11T05:43:49;7.68;;;2.97;;
67981;SDS011;64109;52.148;4.466;2023-02-11T05:46:16;6.57;;;2.63;;
67981;SDS011;64109;52.148;4.466;2023-02-11T05:48:42;7.18;;;3.13;;
67981;SDS011;64109;52.148;4.466;2023-02-11T05:51:08;6.25;;;2.72;;
67981;SDS011;64109;52.148;4.466;2023-02-11T05:53:34;6.93;;;2.92;;
67981;SDS011;64109;52.148;4.466;2023-02-11T05:56:00;6.35;;;2.85;;
67981;SDS011;64109;52.148;4.466;2023-02-11T05:58:26;7.95;;;3.22;;
67981;SDS011;64109;52.148;4.466;2023-02-11T06:00:52;7.70;;;3.75;;
67981;SDS011;64109;52.148;4.466;2023-02-11T06:03:18;6.60;;;2.88;;
67981;SDS011;64109;52.148;4.466;2023-02-11T06:05:44;7.70;;;3.90;;
67981;SDS011;64109;52.148;4.466;2023-02-11T06:08:10;6.65;;;2.63;;
67981;SDS011;64109;52.148;4.466;2023-02-11T06:10:36;8.68;;;3.35;;
67981;SDS011;64109;52.148;4.466;2023-02-11T06:13:03;6.13;;;2.50;;
67981;SDS011;64109;52.148;4.466;2023-02-11T06:15:29;6.47;;;3.03;;
67981;SDS011;64109;52.148;4.466;2023-02-11T06:17:55;6.80;;;3.15;;
67981;SDS011;64109;52.148;4.466;2023-02-11T06:20:21;7.57;;;3.05;;
67981;SDS011;64109;52.148;4.466;2023-02-11T06:22:47;8.32;;;3.72;;
67981;SDS011;64109;52.148;4.466;2023-02-11T06:25:13;7.88;;;3.40;;
67981;SDS011;64109;52.148;4.466;2023-02-11T06:27:39;7.43;;;3.05;;
67981;SDS011;64109;52.148;4.466;2023-02-11T06:30:05;7.60;;;3.00;;
67981;SDS011;64109;52.148;4.466;2023-02-11T06:32:32;6.68;;;3.22;;
67981;SDS011;64109;52.148;4.466;2023-02-11T06:34:58;7.35;;;3.40;;
67981;SDS011;64109;52.148;4.466;2023-02-11T06:37:24;5.63;;;2.60;;
67981;SDS011;64109;52.148;4.466;2023-02-11T06:39:50;7.57;;;3.03;;
67981;SDS011;64109;52.148;4.466;2023-02-11T06:42:16;6.50;;;2.58;;
67981;SDS011;64109;52.148;4.466;2023-02-11T06:44:42;6.13;;;3.85;;
67981;SDS011;64109;52.148;4.466;2023-02-11T06:47:08;5.78;;;2.85;;
67981;SDS011;64109;52.148;4.466;2023-02-11T06:49:34;6.55;;;3.00;;
67981;SDS011;64109;52.148;4.466;2023-02-11T06:52:00;7.28;;;3.13;;
67981;SDS011;64109;52.148;4.466;2023-02-11T06:54:27;5.78;;;2.50;;
67981;SDS011;64109;52.148;4.466;2023-02-11T06:56:53;7.45;;;4.28;;
67981;SDS011;64109;52.148;4.466;2023-02-11T06:59:19;8.82;;;3.20;;
67981;SDS011;64109;52.148;4.466;2023-02-11T07:01:45;7.85;;;3.00;;
67981;SDS011;64109;52.148;4.466;2023-02-11T07:04:11;5.78;;;2.80;;
67981;SDS011;64109;52.148;4.466;2023-02-11T07:06:38;5.70;;;2.67;;
67981;SDS011;64109;52.148;4.466;2023-02-11T07:09:04;6.82;;;2.85;;
67981;SDS011;64109;52.148;4.466;2023-02-11T07:11:30;7.28;;;2.50;;
67981;SDS011;64109;52.148;4.466;2023-02-11T07:14:01;6.45;;;2.72;;
67981;SDS011;64109;52.148;4.466;2023-02-11T07:16:27;4.78;;;2.25;;
67981;SDS011;64109;52.148;4.466;2023-02-11T07:18:53;6.75;;;2.70;;
67981;SDS011;64109;52.148;4.466;2023-02-11T07:21:20;5.22;;;2.80;;
67981;SDS011;64109;52.148;4.466;2023-02-11T07:23:48;4.07;;;2.58;;
67981;SDS011;64109;52.148;4.466;2023-02-11T07:26:15;6.53;;;2.50;;
67981;SDS011;64109;52.148;4.466;2023-02-11T07:28:41;6.35;;;2.40;;
67981;SDS011;64109;52.148;4.466;2023-02-11T07:31:11;4.25;;;2.13;;
67981;SDS011;64109;52.148;4.466;2023-02-11T07:33:37;4.47;;;2.22;;
67981;SDS011;64109;52.148;4.466;2023-02-11T07:36:04;5.72;;;2.60;;
67981;SDS011;64109;52.148;4.466;2023-02-11T07:38:31;5.38;;;2.33;;
67981;SDS011;64109;52.148;4.466;2023-02-11T07:41:01;5.18;;;2.08;;
67981;SDS011;64109;52.148;4.466;2023-02-11T07:43:27;3.83;;;2.95;;
67981;SDS011;64109;52.148;4.466;2023-02-11T07:45:54;5.82;;;2.83;;
67981;SDS011;64109;52.148;4.466;2023-02-11T07:48:20;4.45;;;2.15;;
67981;SDS011;64109;52.148;4.466;2023-02-11T07:50:46;4.90;;;2.17;;
67981;SDS011;64109;52.148;4.466;2023-02-11T07:53:12;4.88;;;2.35;;
67981;SDS011;64109;52.148;4.466;2023-02-11T07:55:38;4.55;;;2.30;;
67981;SDS011;64109;52.148;4.466;2023-02-11T07:58:04;5.10;;;2.20;;
67981;SDS011;64109;52.148;4.466;2023-02-11T08:00:30;4.90;;;1.95;;
67981;SDS011;64109;52.148;4.466;2023-02-11T08:02:56;5.35;;;3.35;;
67981;SDS011;64109;52.148;4.466;2023-02-11T08:05:22;4.85;;;2.17;;
67981;SDS011;64109;52.148;4.466;2023-02-11T08:07:52;3.78;;;1.88;;
67981;SDS011;64109;52.148;4.466;2023-02-11T08:10:19;4.28;;;1.85;;
67981;SDS011;64109;52.148;4.466;2023-02-11T08:12:45;4.03;;;3.38;;
67981;SDS011;64109;52.148;4.466;2023-02-11T08:15:11;5.75;;;1.90;;
67981;SDS011;64109;52.148;4.466;2023-02-11T08:17:37;3.67;;;1.80;;
67981;SDS011;64109;52.148;4.466;2023-02-11T08:20:03;6.53;;;3.17;;
67981;SDS011;64109;52.148;4.466;2023-02-11T08:22:31;4.63;;;2.20;;
67981;SDS011;64109;52.148;4.466;2023-02-11T08:24:57;5.65;;;2.13;;
67981;SDS011;64109;52.148;4.466;2023-02-11T08:27:23;3.90;;;2.33;;
67981;SDS011;64109;52.148;4.466;2023-02-11T08:29:50;3.95;;;1.80;;
67981;SDS011;64109;52.148;4.466;2023-02-11T08:32:16;4.28;;;1.67;;
67981;SDS011;64109;52.148;4.466;2023-02-11T08:34:42;3.10;;;1.70;;
67981;SDS011;64109;52.148;4.466;2023-02-11T08:37:08;4.07;;;1.65;;
67981;SDS011;64109;52.148;4.466;2023-02-11T08:39:34;4.50;;;1.80;;
67981;SDS011;64109;52.148;4.466;2023-02-11T08:42:00;3.38;;;1.73;;
67981;SDS011;64109;52.148;4.466;2023-02-11T08:44:26;6.88;;;2.22;;
67981;SDS011;64109;52.148;4.466;2023-02-11T08:46:53;4.40;;;2.13;;
67981;SDS011;64109;52.148;4.466;2023-02-11T08:49:19;3.83;;;1.90;;
67981;SDS011;64109;52.148;4.466;2023-02-11T08:51:46;5.60;;;1.90;;
67981;SDS011;64109;52.148;4.466;2023-02-11T08:54:12;5.53;;;1.98;;
67981;SDS011;64109;52.148;4.466;2023-02-11T08:56:38;3.92;;;1.55;;
67981;SDS011;64109;52.148;4.466;2023-02-11T08:59:04;3.42;;;1.55;;
67981;SDS011;64109;52.148;4.466;2023-02-11T09:01:30;3.80;;;1.70;;
67981;SDS011;64109;52.148;4.466;2023-02-11T09:03:56;4.88;;;1.70;;
67981;SDS011;64109;52.148;4.466;2023-02-11T09:06:23;5.65;;;2.88;;
67981;SDS011;64109;52.148;4.466;2023-02-11T09:08:50;4.55;;;2.13;;
67981;SDS011;64109;52.148;4.466;2023-02-11T09:11:17;3.40;;;1.48;;
67981;SDS011;64109;52.148;4.466;2023-02-11T09:13:44;4.00;;;1.80;;
67981;SDS011;64109;52.148;4.466;2023-02-11T09:16:17;5.00;;;2.67;;
67981;SDS011;64109;52.148;4.466;2023-02-11T09:18:43;4.20;;;1.67;;
67981;SDS011;64109;52.148;4.466;2023-02-11T09:21:09;4.95;;;1.73;;
67981;SDS011;64109;52.148;4.466;2023-02-11T09:23:36;4.43;;;2.35;;
67981;SDS011;64109;52.148;4.466;2023-02-11T09:26:09;4.30;;;1.92;;
67981;SDS011;64109;52.148;4.466;2023-02-11T09:28:35;4.15;;;2.00;;
67981;SDS011;64109;52.148;4.466;2023-02-11T09:31:08;5.03;;;2.00;;
67981;SDS011;64109;52.148;4.466;2023-02-11T09:33:35;3.80;;;2.17;;
67981;SDS011;64109;52.148;4.466;2023-02-11T09:36:02;3.92;;;1.77;;
67981;SDS011;64109;52.148;4.466;2023-02-11T09:38:29;4.88;;;3.13;;
67981;SDS011;64109;52.148;4.466;2023-02-11T09:40:55;5.10;;;2.00;;
67981;SDS011;64109;52.148;4.466;2023-02-11T09:43:22;3.40;;;1.27;;
67981;SDS011;64109;52.148;4.466;2023-02-11T09:45:49;4.47;;;1.70;;
67981;SDS011;64109;52.148;4.466;2023-02-11T09:48:19;3.17;;;1.40;;
67981;SDS011;64109;52.148;4.466;2023-02-11T09:50:47;3.45;;;1.35;;
67981;SDS011;64109;52.148;4.466;2023-02-11T09:53:19;3.10;;;1.40;;
67981;SDS011;64109;52.148;4.466;2023-02-11T09:55:48;5.07;;;1.65;;
67981;SDS011;64109;52.148;4.466;2023-02-11T09:58:21;2.95;;;1.30;;
67981;SDS011;64109;52.148;4.466;2023-02-11T10:03:38;3.45;;;1.45;;
67981;SDS011;64109;52.148;4.466;2023-02-11T10:06:09;3.90;;;1.42;;
67981;SDS011;64109;52.148;4.466;2023-02-11T10:08:42;4.75;;;1.75;;
67981;SDS011;64109;52.148;4.466;2023-02-11T10:11:15;3.40;;;1.08;;
67981;SDS011;64109;52.148;4.466;2023-02-11T10:13:49;4.05;;;1.48;;
67981;SDS011;64109;52.148;4.466;2023-02-11T10:23:40;2.40;;;1.20;;
67981;SDS011;64109;52.148;4.466;2023-02-11T10:26:11;3.78;;;1.20;;
67981;SDS011;64109;52.148;4.466;2023-02-11T10:28:38;4.97;;;1.30;;
67981;SDS011;64109;52.148;4.466;2023-02-11T10:31:25;2.63;;;1.73;;
67981;SDS011;64109;52.148;4.466;2023-02-11T10:33:54;2.65;;;1.50;;
67981;SDS011;64109;52.148;4.466;2023-02-11T10:36:23;2.45;;;1.10;;
67981;SDS011;64109;52.148;4.466;2023-02-11T10:38:50;4.43;;;1.17;;
67981;SDS011;64109;52.148;4.466;2023-02-11T10:41:19;3.75;;;1.20;;
67981;SDS011;64109;52.148;4.466;2023-02-11T10:43:45;3.00;;;1.27;;
67981;SDS011;64109;52.148;4.466;2023-02-11T10:46:16;2.20;;;1.40;;
67981;SDS011;64109;52.148;4.466;2023-02-11T10:48:46;3.38;;;1.15;;
67981;SDS011;64109;52.148;4.466;2023-02-11T10:53:43;4.05;;;1.13;;
67981;SDS011;64109;52.148;4.466;2023-02-11T10:56:10;2.28;;;1.02;;
67981;SDS011;64109;52.148;4.466;2023-02-11T10:58:44;3.17;;;1.30;;
67981;SDS011;64109;52.148;4.466;2023-02-11T11:01:10;2.95;;;1.25;;
67981;SDS011;64109;52.148;4.466;2023-02-11T11:03:38;2.15;;;1.08;;
67981;SDS011;64109;52.148;4.466;2023-02-11T11:06:05;3.80;;;1.10;;
67981;SDS011;64109;52.148;4.466;2023-02-11T11:08:39;3.38;;;1.17;;
67981;SDS011;64109;52.148;4.466;2023-02-11T11:11:07;2.33;;;1.27;;
67981;SDS011;64109;52.148;4.466;2023-02-11T11:13:34;5.85;;;1.10;;
67981;SDS011;64109;52.148;4.466;2023-02-11T11:18:39;3.03;;;1.30;;
67981;SDS011;64109;52.148;4.466;2023-02-11T11:21:10;2.55;;;1.13;;
67981;SDS011;64109;52.148;4.466;2023-02-11T11:23:37;3.47;;;1.25;;
67981;SDS011;64109;52.148;4.466;2023-02-11T11:28:39;2.75;;;1.73;;
67981;SDS011;64109;52.148;4.466;2023-02-11T11:31:18;3.17;;;2.03;;
67981;SDS011;64109;52.148;4.466;2023-02-11T11:33:45;3.40;;;1.30;;
67981;SDS011;64109;52.148;4.466;2023-02-11T11:36:16;2.45;;;1.17;;
67981;SDS011;64109;52.148;4.466;2023-02-11T11:38:46;3.08;;;1.30;;
67981;SDS011;64109;52.148;4.466;2023-02-11T11:41:20;4.07;;;1.35;;
67981;SDS011;64109;52.148;4.466;2023-02-11T11:43:56;3.58;;;1.23;;
67981;SDS011;64109;52.148;4.466;2023-02-11T11:46:44;3.70;;;1.10;;
67981;SDS011;64109;52.148;4.466;2023-02-11T11:49:27;1.98;;;1.30;;
67981;SDS011;64109;52.148;4.466;2023-02-11T11:54:38;2.45;;;1.02;;
67981;SDS011;64109;52.148;4.466;2023-02-11T11:57:11;2.60;;;1.40;;
67981;SDS011;64109;52.148;4.466;2023-02-11T11:59:39;2.78;;;1.15;;
67981;SDS011;64109;52.148;4.466;2023-02-11T12:07:41;3.72;;;1.58;;
67981;SDS011;64109;52.148;4.466;2023-02-11T12:18:26;6.60;;;2.08;;
67981;SDS011;64109;52.148;4.466;2023-02-11T12:26:15;4.25;;;1.60;;
67981;SDS011;64109;52.148;4.466;2023-02-11T12:28:57;4.10;;;2.85;;
67981;SDS011;64109;52.148;4.466;2023-02-11T12:31:33;3.78;;;1.40;;
67981;SDS011;64109;52.148;4.466;2023-02-11T12:44:24;3.53;;;1.40;;
67981;SDS011;64109;52.148;4.466;2023-02-11T12:47:17;3.78;;;1.23;;
67981;SDS011;64109;52.148;4.466;2023-02-11T12:49:50;2.70;;;1.85;;
67981;SDS011;64109;52.148;4.466;2023-02-11T12:54:55;2.47;;;1.27;;
67981;SDS011;64109;52.148;4.466;2023-02-11T12:57:24;2.45;;;1.20;;
67981;SDS011;64109;52.148;4.466;2023-02-11T13:02:28;2.65;;;1.23;;
67981;SDS011;64109;52.148;4.466;2023-02-11T13:04:58;2.65;;;1.70;;
67981;SDS011;64109;52.148;4.466;2023-02-11T13:10:03;3.22;;;1.27;;
67981;SDS011;64109;52.148;4.466;2023-02-11T13:12:31;2.15;;;1.10;;
67981;SDS011;64109;52.148;4.466;2023-02-11T13:15:17;2.40;;;1.30;;
67981;SDS011;64109;52.148;4.466;2023-02-11T13:25:54;2.17;;;1.30;;
67981;SDS011;64109;52.148;4.466;2023-02-11T13:28:39;3.55;;;1.40;;
67981;SDS011;64109;52.148;4.466;2023-02-11T13:31:07;3.83;;;1.75;;
67981;SDS011;64109;52.148;4.466;2023-02-11T13:33:36;2.72;;;1.05;;
67981;SDS011;64109;52.148;4.466;2023-02-11T13:36:13;3.13;;;2.10;;
67981;SDS011;64109;52.148;4.466;2023-02-11T13:38:40;3.58;;;2.30;;
67981;SDS011;64109;52.148;4.466;2023-02-11T13:41:17;3.17;;;1.25;;
67981;SDS011;64109;52.148;4.466;2023-02-11T13:43:46;4.50;;;1.23;;
67981;SDS011;64109;52.148;4.466;2023-02-11T13:46:21;3.30;;;1.27;;
67981;SDS011;64109;52.148;4.466;2023-02-11T13:48:48;3.45;;;1.50;;
67981;SDS011;64109;52.148;4.466;2023-02-11T13:51:17;2.70;;;2.03;;
67981;SDS011;64109;52.148;4.466;2023-02-11T13:53:45;4.05;;;1.17;;
67981;SDS011;64109;52.148;4.466;2023-02-11T13:56:22;2.28;;;1.20;;
67981;SDS011;64109;52.148;4.466;2023-02-11T13:58:49;3.85;;;2.10;;
67981;SDS011;64109;52.148;4.466;2023-02-11T14:16:06;2.78;;;2.08;;
67981;SDS011;64109;52.148;4.466;2023-02-11T14:23:46;3.30;;;1.30;;
67981;SDS011;64109;52.148;4.466;2023-02-11T14:31:20;3.83;;;2.53;;
67981;SDS011;64109;52.148;4.466;2023-02-11T14:36:36;1.90;;;1.20;;
67981;SDS011;64109;52.148;4.466;2023-02-11T14:41:40;2.70;;;1.33;;
67981;SDS011;64109;52.148;4.466;2023-02-11T14:44:12;2.17;;;1.80;;
67981;SDS011;64109;52.148;4.466;2023-02-11T14:46:42;2.03;;;1.63;;
67981;SDS011;64109;52.148;4.466;2023-02-11T14:49:11;3.50;;;1.25;;
67981;SDS011;64109;52.148;4.466;2023-02-11T14:51:41;3.75;;;1.10;;
67981;SDS011;64109;52.148;4.466;2023-02-11T14:54:17;1.88;;;0.95;;
67981;SDS011;64109;52.148;4.466;2023-02-11T14:56:45;2.17;;;0.90;;
67981;SDS011;64109;52.148;4.466;2023-02-11T14:59:14;2.53;;;2.08;;
67981;SDS011;64109;52.148;4.466;2023-02-11T15:01:41;3.13;;;1.20;;
67981;SDS011;64109;52.148;4.466;2023-02-11T15:04:23;4.20;;;1.10;;
67981;SDS011;64109;52.148;4.466;2023-02-11T15:06:49;1.90;;;1.08;;
67981;SDS011;64109;52.148;4.466;2023-02-11T15:09:16;2.20;;;0.98;;
67981;SDS011;64109;52.148;4.466;2023-02-11T15:11:47;1.60;;;0.95;;
67981;SDS011;64109;52.148;4.466;2023-02-11T15:14:27;2.55;;;0.90;;
67981;SDS011;64109;52.148;4.466;2023-02-11T15:16:54;1.65;;;0.93;;
67981;SDS011;64109;52.148;4.466;2023-02-11T15:19:40;2.47;;;0.98;;
67981;SDS011;64109;52.148;4.466;2023-02-11T15:22:14;4.78;;;1.00;;
67981;SDS011;64109;52.148;4.466;2023-02-11T15:24:56;3.20;;;1.02;;
67981;SDS011;64109;52.148;4.466;2023-02-11T15:27:22;2.30;;;0.90;;
67981;SDS011;64109;52.148;4.466;2023-02-11T15:29:50;2.50;;;1.05;;
67981;SDS011;64109;52.148;4.466;2023-02-11T15:32:17;3.20;;;1.10;;
67981;SDS011;64109;52.148;4.466;2023-02-11T15:34:44;2.00;;;0.93;;
67981;SDS011;64109;52.148;4.466;2023-02-11T15:37:16;2.30;;;1.10;;
67981;SDS011;64109;52.148;4.466;2023-02-11T15:39:44;0.98;;;0.55;;
67981;SDS011;64109;52.148;4.466;2023-02-11T15:42:16;2.15;;;1.00;;
67981;SDS011;64109;52.148;4.466;2023-02-11T15:44:43;2.55;;;0.93;;
67981;SDS011;64109;52.148;4.466;2023-02-11T15:47:09;3.20;;;1.17;;
67981;SDS011;64109;52.148;4.466;2023-02-11T15:49:35;2.55;;;1.05;;
67981;SDS011;64109;52.148;4.466;2023-02-11T15:52:02;3.35;;;1.75;;
67981;SDS011;64109;52.148;4.466;2023-02-11T15:54:28;2.40;;;1.17;;
67981;SDS011;64109;52.148;4.466;2023-02-11T15:57:02;4.43;;;1.30;;
67981;SDS011;64109;52.148;4.466;2023-02-11T15:59:33;1.98;;;0.98;;
67981;SDS011;64109;52.148;4.466;2023-02-11T16:02:06;4.60;;;1.08;;
67981;SDS011;64109;52.148;4.466;2023-02-11T16:04:33;2.47;;;1.10;;
67981;SDS011;64109;52.148;4.466;2023-02-11T16:06:58;4.38;;;1.30;;
67981;SDS011;64109;52.148;4.466;2023-02-11T16:09:32;3.65;;;1.20;;
67981;SDS011;64109;52.148;4.466;2023-02-11T16:12:02;4.15;;;1.23;;
67981;SDS011;64109;52.148;4.466;2023-02-11T16:14:32;3.03;;;1.80;;
67981;SDS011;64109;52.148;4.466;2023-02-11T16:17:08;2.38;;;1.17;;
67981;SDS011;64109;52.148;4.466;2023-02-11T16:19:35;3.70;;;1.67;;
67981;SDS011;64109;52.148;4.466;2023-02-11T16:22:05;2.13;;;0.80;;
67981;SDS011;64109;52.148;4.466;2023-02-11T16:24:33;3.58;;;1.75;;
67981;SDS011;64109;52.148;4.466;2023-02-11T16:27:01;2.45;;;1.13;;
67981;SDS011;64109;52.148;4.466;2023-02-11T16:29:36;1.98;;;1.77;;
67981;SDS011;64109;52.148;4.466;2023-02-11T16:34:34;2.60;;;1.00;;
67981;SDS011;64109;52.148;4.466;2023-02-11T16:37:02;3.78;;;2.28;;
67981;SDS011;64109;52.148;4.466;2023-02-11T16:39:28;1.85;;;1.00;;
67981;SDS011;64109;52.148;4.466;2023-02-11T16:41:54;2.45;;;0.85;;
67981;SDS011;64109;52.148;4.466;2023-02-11T16:44:21;2.72;;;0.73;;
67981;SDS011;64109;52.148;4.466;2023-02-11T16:46:47;4.32;;;1.08;;
67981;SDS011;64109;52.148;4.466;2023-02-11T16:49:16;3.80;;;1.10;;
67981;SDS011;64109;52.148;4.466;2023-02-11T16:51:42;1.92;;;0.88;;
67981;SDS011;64109;52.148;4.466;2023-02-11T16:54:13;2.75;;;0.95;;
67981;SDS011;64109;52.148;4.466;2023-02-11T16:56:40;2.15;;;0.85;;
67981;SDS011;64109;52.148;4.466;2023-02-11T16:59:05;1.95;;;0.80;;
67981;SDS011;64109;52.148;4.466;2023-02-11T17:01:31;2.38;;;1.10;;
67981;SDS011;64109;52.148;4.466;2023-02-11T17:03:58;1.58;;;0.70;;
67981;SDS011;64109;52.148;4.466;2023-02-11T17:06:24;2.58;;;1.60;;
67981;SDS011;64109;52.148;4.466;2023-02-11T17:08:51;3.22;;;0.90;;
67981;SDS011;64109;52.148;4.466;2023-02-11T17:11:17;4.03;;;1.00;;
67981;SDS011;64109;52.148;4.466;2023-02-11T17:13:44;2.35;;;1.65;;
67981;SDS011;64109;52.148;4.466;2023-02-11T17:16:12;3.55;;;0.90;;
67981;SDS011;64109;52.148;4.466;2023-02-11T17:18:40;2.65;;;1.67;;